createdAt,value
2018-04-24T00:01:06.552Z,10.10
2018-04-24T00:03:34.923Z,10.10
2018-04-24T00:06:03.280Z,10.10
2018-04-24T00:08:32.389Z,10.10
2018-04-24T00:11:00.740Z,10.00
2018-04-24T00:13:29.115Z,10.00
2018-04-24T00:15:57.481Z,10.10
2018-04-24T00:18:25.967Z,10.10
2018-04-24T00:20:54.343Z,10.10
2018-04-24T00:23:22.724Z,10.10
2018-04-24T00:25:51.239Z,10.20
2018-04-24T00:28:19.573Z,10.10
2018-04-24T00:30:47.907Z,10.10
2018-04-24T00:33:17.556Z,10.10
2018-04-24T00:35:45.917Z,10.10
2018-04-24T00:38:14.299Z,10.10
2018-04-24T00:40:42.673Z,10.20
2018-04-24T00:43:11.056Z,10.20
2018-04-24T00:45:39.396Z,10.30
2018-04-24T00:48:07.782Z,10.30
2018-04-24T00:50:36.132Z,10.40
2018-04-24T00:53:17.055Z,10.50
2018-04-24T00:55:45.431Z,10.50
2018-04-24T00:58:13.750Z,10.60
2018-04-24T01:00:43.290Z,10.70
2018-04-24T01:03:11.629Z,10.70
2018-04-24T01:05:40.767Z,10.80
2018-04-24T01:08:09.165Z,10.70
2018-04-24T01:10:37.540Z,10.70
2018-04-24T01:13:05.955Z,10.70
2018-04-24T01:15:34.352Z,10.60
2018-04-24T01:18:03.532Z,10.70
2018-04-24T01:20:32.685Z,10.70
2018-04-24T01:23:01.111Z,10.60
2018-04-24T01:25:30.271Z,10.70
2018-04-24T01:27:58.651Z,10.60
2018-04-24T01:30:26.998Z,10.70
2018-04-24T01:32:55.324Z,10.70
2018-04-24T01:35:23.726Z,10.70
2018-04-24T01:37:52.842Z,10.70
2018-04-24T01:40:21.627Z,10.70
2018-04-24T01:42:49.988Z,10.70
2018-04-24T01:45:19.140Z,10.70
2018-04-24T01:47:47.512Z,10.70
2018-04-24T01:50:16.032Z,10.80
2018-04-24T01:52:45.179Z,10.90
2018-04-24T01:55:13.561Z,10.90
2018-04-24T01:57:41.943Z,11.00
2018-04-24T02:00:10.288Z,11.00
2018-04-24T02:02:38.811Z,11.00
2018-04-24T02:05:07.160Z,11.00
2018-04-24T02:07:35.558Z,10.90
2018-04-24T02:10:04.005Z,10.90
2018-04-24T02:12:32.760Z,10.80
2018-04-24T02:15:01.224Z,10.80
2018-04-24T02:17:29.611Z,10.70
2018-04-24T02:19:57.931Z,10.60
2018-04-24T02:22:26.297Z,10.60
2018-04-24T02:24:54.741Z,10.60
2018-04-24T02:27:23.112Z,10.50
2018-04-24T02:29:51.521Z,10.50
2018-04-24T02:32:20.661Z,10.50
2018-04-24T02:34:49.063Z,10.50
2018-04-24T02:37:17.460Z,10.50
2018-04-24T02:39:45.857Z,10.40
2018-04-24T02:42:14.944Z,10.40
2018-04-24T02:44:44.251Z,10.40
2018-04-24T02:47:13.396Z,10.40
2018-04-24T02:49:41.736Z,10.40
2018-04-24T02:52:10.144Z,10.30
2018-04-24T02:54:38.576Z,10.40
2018-04-24T02:57:07.662Z,10.30
2018-04-24T02:59:36.022Z,10.30
2018-04-24T03:02:04.452Z,10.30
2018-04-24T03:04:32.793Z,10.30
2018-04-24T03:07:01.907Z,10.30
2018-04-24T03:09:30.241Z,10.30
2018-04-24T03:11:58.838Z,10.30
2018-04-24T03:14:27.223Z,10.40
2018-04-24T03:16:55.590Z,10.40
2018-04-24T03:19:23.969Z,10.50
2018-04-24T03:21:52.355Z,10.50
2018-04-24T03:24:20.788Z,10.50
2018-04-24T03:26:49.942Z,10.40
2018-04-24T03:29:19.086Z,10.40
2018-04-24T03:31:47.497Z,10.50
2018-04-24T03:34:15.885Z,10.50
2018-04-24T03:36:44.350Z,10.40
2018-04-24T03:39:12.711Z,10.40
2018-04-24T03:41:41.096Z,10.40
2018-04-24T03:44:09.500Z,10.40
2018-04-24T03:46:38.378Z,10.40
2018-04-24T03:49:06.760Z,10.30
2018-04-24T03:51:35.121Z,10.20
2018-04-24T03:54:03.536Z,10.20
2018-04-24T03:56:32.655Z,10.20
2018-04-24T03:59:01.073Z,10.10
2018-04-24T04:01:29.440Z,10.10
2018-04-24T04:03:57.767Z,10.10
2018-04-24T04:06:26.916Z,9.90
2018-04-24T04:08:55.292Z,9.90
2018-04-24T04:11:23.656Z,9.90
2018-04-24T04:13:52.179Z,9.80
2018-04-24T04:16:21.338Z,9.90
2018-04-24T04:19:01.699Z,9.90
2018-04-24T04:21:41.802Z,9.90
2018-04-24T04:24:22.675Z,9.90
2018-04-24T04:26:51.923Z,10.00
2018-04-24T04:29:20.329Z,9.90
2018-04-24T04:31:48.713Z,10.00
2018-04-24T04:34:17.135Z,10.00
2018-04-24T04:36:45.490Z,10.00
2018-04-24T04:39:14.640Z,10.00
2018-04-24T04:41:43.044Z,10.00
2018-04-24T04:44:11.362Z,10.00
2018-04-24T04:46:39.762Z,10.10
2018-04-24T04:49:08.187Z,10.00
2018-04-24T04:51:37.351Z,10.10
2018-04-24T04:54:05.693Z,10.10
2018-04-24T04:56:34.107Z,10.10
2018-04-24T04:59:02.495Z,10.10
2018-04-24T05:01:30.950Z,10.10
2018-04-24T05:03:59.333Z,10.20
2018-04-24T05:06:27.693Z,10.20
2018-04-24T05:08:56.109Z,10.30
2018-04-24T05:11:24.493Z,10.50
2018-04-24T05:13:52.915Z,10.50
2018-04-24T05:16:21.330Z,10.60
2018-04-24T05:18:49.707Z,10.60
2018-04-24T05:21:18.079Z,10.70
2018-04-24T05:23:46.518Z,10.70
2018-04-24T05:26:15.661Z,10.80
2018-04-24T05:28:43.979Z,10.80
2018-04-24T05:31:13.218Z,10.80
2018-04-24T05:33:41.602Z,10.80
2018-04-24T05:36:09.933Z,10.80
2018-04-24T05:38:39.078Z,10.90
2018-04-24T05:41:07.483Z,10.90
2018-04-24T05:43:35.828Z,10.90
2018-04-24T05:46:05.351Z,11.00
2018-04-24T05:48:33.732Z,11.00
2018-04-24T05:51:02.082Z,11.10
2018-04-24T05:53:30.596Z,11.10
2018-04-24T05:55:58.998Z,11.10
2018-04-24T05:58:28.174Z,11.10
2018-04-24T06:00:56.530Z,11.10
2018-04-24T06:03:24.848Z,11.10
2018-04-24T06:05:53.235Z,11.10
2018-04-24T06:08:22.329Z,11.00
2018-04-24T06:10:51.443Z,10.90
2018-04-24T06:13:19.833Z,10.90
2018-04-24T06:15:48.230Z,11.00
2018-04-24T06:18:16.550Z,11.00
2018-04-24T06:20:44.899Z,11.00
2018-04-24T06:23:13.275Z,11.00
2018-04-24T06:25:41.590Z,11.10
2018-04-24T06:28:10.727Z,11.10
2018-04-24T06:30:39.807Z,11.10
2018-04-24T06:33:08.247Z,11.10
2018-04-24T06:35:38.236Z,11.20
2018-04-24T06:38:06.685Z,11.20
2018-04-24T06:40:35.246Z,11.30
2018-04-24T06:43:04.395Z,11.20
2018-04-24T06:45:32.727Z,11.20
2018-04-24T06:48:01.112Z,11.30
2018-04-24T06:50:29.427Z,11.30
2018-04-24T06:52:57.808Z,11.30
2018-04-24T06:55:26.607Z,11.30
2018-04-24T06:57:55.461Z,11.30
2018-04-24T07:00:23.808Z,11.40
2018-04-24T07:02:52.130Z,11.50
2018-04-24T07:05:21.396Z,11.50
2018-04-24T07:07:49.751Z,11.60
2018-04-24T07:10:18.890Z,11.50
2018-04-24T07:12:47.267Z,11.40
2018-04-24T07:15:15.603Z,11.50
2018-04-24T07:17:44.763Z,11.60
2018-04-24T07:20:13.140Z,11.60
2018-04-24T07:22:41.543Z,11.70
2018-04-24T07:25:10.715Z,11.70
2018-04-24T07:27:39.111Z,11.70
2018-04-24T07:30:07.964Z,11.70
2018-04-24T07:32:36.667Z,11.70
2018-04-24T07:35:05.046Z,11.70
2018-04-24T07:37:33.443Z,11.80
2018-04-24T07:40:01.828Z,12.00
2018-04-24T07:42:31.134Z,12.00
2018-04-24T07:45:00.282Z,12.10
2018-04-24T07:47:28.640Z,12.10
2018-04-24T07:49:57.024Z,12.10
2018-04-24T07:52:25.362Z,12.10
2018-04-24T07:54:54.512Z,12.20
2018-04-24T07:57:22.884Z,12.20
2018-04-24T07:59:51.360Z,12.20
2018-04-24T08:02:20.506Z,12.10
2018-04-24T08:04:49.594Z,12.20
2018-04-24T08:07:18.768Z,12.30
2018-04-24T08:09:47.148Z,12.30
2018-04-24T08:12:15.573Z,12.30
2018-04-24T08:14:44.729Z,12.30
2018-04-24T08:17:13.090Z,12.30
2018-04-24T08:19:41.553Z,12.20
2018-04-24T08:22:09.932Z,12.30
2018-04-24T08:24:38.308Z,12.30
2018-04-24T08:27:06.692Z,12.40
2018-04-24T08:29:35.106Z,12.30
2018-04-24T08:32:03.451Z,12.40
2018-04-24T08:34:31.984Z,12.40
2018-04-24T08:37:01.111Z,12.60
2018-04-24T08:39:29.495Z,12.60
2018-04-24T08:41:57.998Z,12.40
2018-04-24T08:44:26.384Z,12.40
2018-04-24T08:46:54.792Z,12.40
2018-04-24T08:49:24.422Z,12.50
2018-04-24T08:51:52.821Z,12.50
2018-04-24T08:54:21.163Z,12.40
2018-04-24T08:56:50.283Z,12.10
2018-04-24T08:59:18.694Z,12.10
2018-04-24T09:01:47.070Z,12.10
2018-04-24T09:04:15.937Z,12.10
2018-04-24T09:06:44.304Z,12.10
2018-04-24T09:09:12.638Z,12.10
2018-04-24T09:11:41.052Z,12.30
2018-04-24T09:14:10.751Z,12.40
2018-04-24T09:16:39.641Z,12.60
2018-04-24T09:19:08.037Z,12.70
2018-04-24T09:21:36.463Z,12.70
2018-04-24T09:24:04.881Z,12.60
2018-04-24T09:26:33.300Z,12.70
2018-04-24T09:29:02.266Z,12.60
2018-04-24T09:31:36.316Z,12.40
2018-04-24T09:34:04.735Z,12.40
2018-04-24T09:36:33.244Z,12.50
2018-04-24T09:39:01.683Z,12.50
2018-04-24T09:41:30.792Z,12.60
2018-04-24T09:43:59.235Z,12.50
2018-04-24T09:46:27.595Z,12.50
2018-04-24T09:48:55.974Z,12.40
2018-04-24T09:51:24.339Z,12.40
2018-04-24T09:53:52.779Z,12.30
2018-04-24T09:56:22.088Z,12.30
2018-04-24T09:58:50.496Z,12.30
2018-04-24T10:01:18.888Z,12.40
2018-04-24T10:03:47.295Z,12.50
2018-04-24T10:06:15.685Z,12.50
2018-04-24T10:08:44.912Z,12.70
2018-04-24T10:11:13.300Z,12.60
2018-04-24T10:13:42.519Z,12.70
2018-04-24T10:16:11.778Z,12.80
2018-04-24T10:18:40.186Z,12.80
2018-04-24T10:21:08.606Z,12.80
2018-04-24T10:23:37.764Z,12.80
2018-04-24T10:26:06.100Z,12.80
2018-04-24T10:28:34.493Z,12.80
2018-04-24T10:31:03.237Z,12.90
2018-04-24T10:33:31.600Z,12.80
2018-04-24T10:35:59.965Z,12.90
2018-04-24T10:38:28.662Z,13.10
2018-04-24T10:40:57.047Z,13.30
2018-04-24T10:43:25.403Z,13.60
2018-04-24T10:45:53.745Z,13.90
2018-04-24T10:48:22.179Z,13.90
2018-04-24T10:50:50.567Z,13.70
2018-04-24T10:53:18.960Z,13.50
2018-04-24T10:55:48.116Z,13.30
2018-04-24T10:58:16.482Z,13.30
2018-04-24T11:00:44.853Z,13.40
2018-04-24T11:03:13.397Z,13.40
2018-04-24T11:05:42.571Z,13.40
2018-04-24T11:08:10.968Z,13.40
2018-04-24T11:10:40.085Z,13.50
2018-04-24T11:13:08.456Z,13.50
2018-04-24T11:15:36.913Z,13.60
2018-04-24T11:18:06.044Z,14.30
2018-04-24T11:20:34.395Z,14.30
2018-04-24T11:23:03.580Z,14.90
2018-04-24T11:25:31.928Z,14.90
2018-04-24T11:28:00.315Z,14.90
2018-04-24T11:30:28.853Z,14.90
2018-04-24T11:32:57.187Z,15.10
2018-04-24T11:35:25.588Z,15.00
2018-04-24T11:37:55.277Z,15.00
2018-04-24T11:40:23.668Z,15.00
2018-04-24T11:42:52.816Z,15.00
2018-04-24T11:45:21.171Z,14.90
2018-04-24T11:47:49.690Z,14.70
2018-04-24T11:50:18.078Z,14.40
2018-04-24T11:52:46.435Z,14.20
2018-04-24T11:55:14.906Z,14.20
2018-04-24T11:57:43.301Z,14.10
2018-04-24T12:00:11.683Z,14.00
2018-04-24T12:02:40.200Z,13.80
2018-04-24T12:05:08.503Z,13.70
2018-04-24T12:07:36.891Z,13.60
2018-04-24T12:10:05.834Z,13.60
2018-04-24T12:12:34.951Z,13.90
2018-04-24T12:15:03.369Z,13.80
2018-04-24T12:17:31.815Z,14.10
2018-04-24T12:20:00.226Z,14.60
2018-04-24T12:22:28.588Z,15.10
2018-04-24T12:24:57.427Z,15.20
2018-04-24T12:27:25.760Z,15.40
2018-04-24T12:29:54.923Z,15.70
2018-04-24T12:32:24.073Z,15.70
2018-04-24T12:34:52.470Z,15.70
2018-04-24T12:37:20.882Z,15.60
2018-04-24T12:39:49.276Z,15.40
2018-04-24T12:42:17.932Z,15.10
2018-04-24T12:44:47.112Z,15.10
2018-04-24T12:47:15.579Z,15.10
2018-04-24T12:49:44.047Z,15.20
2018-04-24T12:52:12.661Z,15.10
2018-04-24T12:54:41.067Z,15.10
2018-04-24T12:57:09.453Z,15.20
2018-04-24T12:59:37.862Z,15.40
2018-04-24T13:02:06.266Z,15.50
2018-04-24T13:04:35.182Z,15.80
2018-04-24T13:07:04.345Z,15.90
2018-04-24T13:09:32.740Z,15.90
2018-04-24T13:12:01.157Z,16.00
2018-04-24T13:14:29.544Z,16.00
2018-04-24T13:16:57.917Z,15.80
2018-04-24T13:19:27.053Z,15.60
2018-04-24T13:21:55.515Z,15.60
2018-04-24T13:24:23.880Z,15.50
2018-04-24T13:26:52.227Z,15.20
2018-04-24T13:29:20.639Z,15.20
2018-04-24T13:31:49.027Z,15.10
2018-04-24T13:34:17.440Z,15.10
2018-04-24T13:36:45.871Z,15.10
2018-04-24T13:39:14.199Z,14.90
2018-04-24T13:41:42.613Z,14.70
2018-04-24T13:44:10.999Z,14.70
2018-04-24T13:46:39.406Z,14.70
2018-04-24T13:49:07.796Z,14.80
2018-04-24T13:51:36.212Z,14.80
2018-04-24T13:54:04.611Z,14.80
2018-04-24T13:56:33.023Z,14.80
2018-04-24T13:59:01.379Z,14.80
2018-04-24T14:01:29.709Z,14.70
2018-04-24T14:03:58.878Z,14.70
2018-04-24T14:06:27.299Z,14.70
2018-04-24T14:08:55.651Z,14.60
2018-04-24T14:11:24.826Z,14.80
2018-04-24T14:13:53.218Z,14.80
2018-04-24T14:16:21.611Z,14.80
2018-04-24T14:18:50.795Z,15.00
2018-04-24T14:21:19.155Z,15.00
2018-04-24T14:23:48.032Z,15.10
2018-04-24T14:26:16.361Z,15.00
2018-04-24T14:28:45.520Z,14.90
2018-04-24T14:31:13.930Z,14.80
2018-04-24T14:33:43.033Z,14.80
2018-04-24T14:36:12.233Z,14.80
2018-04-24T14:38:40.563Z,14.80
2018-04-24T14:41:08.895Z,14.80
2018-04-24T14:43:37.420Z,14.80
2018-04-24T14:46:05.816Z,14.80
2018-04-24T14:48:34.188Z,14.80
2018-04-24T14:51:02.732Z,14.80
2018-04-24T14:53:31.118Z,14.60
2018-04-24T14:55:59.488Z,14.60
2018-04-24T14:58:29.718Z,14.60
2018-04-24T15:00:58.609Z,14.50
2018-04-24T15:03:27.084Z,14.40
2018-04-24T15:05:55.501Z,14.40
2018-04-24T15:08:23.861Z,14.40
2018-04-24T15:10:52.275Z,14.60
2018-04-24T15:13:21.555Z,14.90
2018-04-24T15:15:50.301Z,14.90
2018-04-24T15:18:18.669Z,15.10
2018-04-24T15:20:47.110Z,15.10
2018-04-24T15:23:15.524Z,15.10
2018-04-24T15:25:43.931Z,15.30
2018-04-24T15:28:12.375Z,15.40
2018-04-24T15:30:40.770Z,15.50
2018-04-24T15:33:09.214Z,15.70
2018-04-24T15:35:38.397Z,15.50
2018-04-24T15:38:06.774Z,15.40
2018-04-24T15:40:35.162Z,15.40
2018-04-24T15:43:04.297Z,15.20
2018-04-24T15:45:32.699Z,15.20
2018-04-24T15:48:01.199Z,15.20
2018-04-24T15:50:29.676Z,15.20
2018-04-24T15:52:58.142Z,15.10
2018-04-24T15:55:26.608Z,15.30
2018-04-24T15:57:55.130Z,15.50
2018-04-24T16:00:23.498Z,15.40
2018-04-24T16:02:51.976Z,15.40
2018-04-24T16:05:21.498Z,16.00
2018-04-24T16:07:49.978Z,15.90
2018-04-24T16:10:19.114Z,16.40
2018-04-24T16:12:47.529Z,16.40
2018-04-24T16:15:15.865Z,16.40
2018-04-24T16:17:50.492Z,16.30
2018-04-24T16:20:18.820Z,16.10
2018-04-24T16:22:47.217Z,16.00
2018-04-24T16:25:16.374Z,15.70
2018-04-24T16:27:44.763Z,15.70
2018-04-24T16:30:13.165Z,15.60
2018-04-24T16:32:42.327Z,15.30
2018-04-24T16:35:10.658Z,15.30
2018-04-24T16:37:39.049Z,15.20
2018-04-24T16:40:07.456Z,15.10
2018-04-24T16:42:35.783Z,15.10
2018-04-24T16:45:05.020Z,15.10
2018-04-24T16:47:33.366Z,15.10
2018-04-24T16:50:01.907Z,15.00
2018-04-24T16:52:30.320Z,15.00
2018-04-24T16:54:59.483Z,15.10
2018-04-24T16:57:27.895Z,15.00
2018-04-24T16:59:57.058Z,15.00
2018-04-24T17:02:25.466Z,14.90
2018-04-24T17:04:54.558Z,14.80
2018-04-24T17:07:23.732Z,14.80
2018-04-24T17:09:52.112Z,14.80
2018-04-24T17:12:20.530Z,14.70
2018-04-24T17:14:48.916Z,14.70
2018-04-24T17:17:17.314Z,14.60
2018-04-24T17:19:46.136Z,14.60
2018-04-24T17:22:14.546Z,14.60
2018-04-24T17:24:42.910Z,14.60
2018-04-24T17:27:12.068Z,14.50
2018-04-24T17:29:40.460Z,14.50
2018-04-24T17:32:08.823Z,14.50
2018-04-24T17:34:37.241Z,14.40
2018-04-24T17:37:06.402Z,14.30
2018-04-24T17:39:34.823Z,14.30
2018-04-24T17:42:03.993Z,14.20
2018-04-24T17:44:32.323Z,14.30
2018-04-24T17:47:00.650Z,14.20
2018-04-24T17:49:29.006Z,14.20
2018-04-24T17:51:57.391Z,14.10
2018-04-24T17:54:25.740Z,14.10
2018-04-24T17:56:54.151Z,14.10
2018-04-24T17:59:22.517Z,14.00
2018-04-24T18:01:50.941Z,14.00
2018-04-24T18:04:20.962Z,14.00
2018-04-24T18:06:50.165Z,13.90
2018-04-24T18:09:18.556Z,13.90
2018-04-24T18:11:46.947Z,13.90
2018-04-24T18:14:15.374Z,13.90
2018-04-24T18:16:43.707Z,13.90
2018-04-24T18:19:12.046Z,13.80
2018-04-24T18:21:41.235Z,13.70
2018-04-24T18:24:10.409Z,13.70
2018-04-24T18:26:38.929Z,13.70
2018-04-24T18:29:07.288Z,13.70
2018-04-24T18:31:36.443Z,13.70
2018-04-24T18:34:04.794Z,13.60
2018-04-24T18:36:33.123Z,13.60
2018-04-24T18:39:01.505Z,13.60
2018-04-24T18:41:29.903Z,13.60
2018-04-24T18:43:59.004Z,13.50
2018-04-24T18:46:27.402Z,13.50
2018-04-24T18:48:55.728Z,13.50
2018-04-24T18:51:24.459Z,13.50
2018-04-24T18:53:52.796Z,13.50
2018-04-24T18:56:21.151Z,13.50
2018-04-24T18:58:49.548Z,13.50
2018-04-24T19:01:18.349Z,13.50
2018-04-24T19:03:47.454Z,13.50
2018-04-24T19:06:16.612Z,13.50
2018-04-24T19:08:45.052Z,13.50
2018-04-24T19:11:13.407Z,13.50
2018-04-24T19:13:42.574Z,13.40
2018-04-24T19:16:11.200Z,13.40
2018-04-24T19:18:45.220Z,13.40
2018-04-24T19:21:13.812Z,13.30
2018-04-24T19:23:42.269Z,13.30
2018-04-24T19:26:11.048Z,13.30
2018-04-24T19:28:40.500Z,13.30
2018-04-24T19:34:08.623Z,13.20
2018-04-24T19:36:37.026Z,13.20
2018-04-24T19:39:11.463Z,13.20
2018-04-24T19:41:45.587Z,13.30
2018-04-24T19:44:14.733Z,13.20
2018-04-24T19:46:43.888Z,13.30
2018-04-24T19:49:17.815Z,13.20
2018-04-24T19:51:46.223Z,13.30
2018-04-24T19:54:15.395Z,13.20
2018-04-24T19:56:43.827Z,13.20
2018-04-24T19:59:12.178Z,13.20
2018-04-24T20:01:41.355Z,13.20
2018-04-24T20:04:09.748Z,13.20
2018-04-24T20:06:38.956Z,13.20
2018-04-24T20:09:08.061Z,13.20
2018-04-24T20:11:36.455Z,13.20
2018-04-24T20:14:04.894Z,13.20
2018-04-24T20:16:34.056Z,13.10
2018-04-24T20:19:02.411Z,13.10
2018-04-24T20:21:30.796Z,13.20
2018-04-24T20:23:59.317Z,13.10
2018-04-24T20:26:27.713Z,13.20
2018-04-24T20:28:56.867Z,13.10
2018-04-24T20:31:25.248Z,13.10
2018-04-24T20:33:53.662Z,13.10
2018-04-24T20:36:22.819Z,13.10
2018-04-24T20:38:51.228Z,13.00
2018-04-24T20:41:19.593Z,13.00
2018-04-24T20:43:47.955Z,13.00
2018-04-24T20:46:16.287Z,13.00
2018-04-24T20:48:44.708Z,13.10
2018-04-24T20:51:13.139Z,13.00
2018-04-24T20:53:41.556Z,13.00
2018-04-24T20:56:10.129Z,13.00
2018-04-24T20:58:38.512Z,13.00
2018-04-24T21:01:07.085Z,13.00
2018-04-24T21:03:35.466Z,12.90
2018-04-24T21:06:04.802Z,12.90
2018-04-24T21:08:33.133Z,12.90
2018-04-24T21:11:01.691Z,12.90
2018-04-24T21:13:30.976Z,12.90
2018-04-24T21:15:59.389Z,12.90
2018-04-24T21:18:27.775Z,12.90
2018-04-24T21:20:56.205Z,12.90
2018-04-24T21:23:24.654Z,12.90
2018-04-24T21:25:52.983Z,12.80
2018-04-24T21:28:22.196Z,12.80
2018-04-24T21:30:50.597Z,12.80
2018-04-24T21:33:18.993Z,12.70
2018-04-24T21:35:47.455Z,12.70
2018-04-24T21:38:15.814Z,12.60
2018-04-24T21:40:44.224Z,12.60
2018-04-24T21:43:12.635Z,12.60
2018-04-24T21:45:41.224Z,12.50
2018-04-24T21:48:09.670Z,12.50
2018-04-24T21:50:38.076Z,12.50
2018-04-24T21:53:06.464Z,12.50
2018-04-24T21:55:35.616Z,12.50
2018-04-24T21:58:04.051Z,12.50
2018-04-24T22:00:33.209Z,12.40
2018-04-24T22:03:01.595Z,12.40
2018-04-24T22:05:30.006Z,12.40
2018-04-24T22:07:59.159Z,12.30
2018-04-24T22:10:27.558Z,12.30
2018-04-24T22:12:55.951Z,12.30
2018-04-24T22:15:25.132Z,12.20
2018-04-24T22:17:53.544Z,12.10
2018-04-24T22:20:21.927Z,12.10
2018-04-24T22:22:50.340Z,12.10
2018-04-24T22:25:18.671Z,12.10
2018-04-24T22:27:47.080Z,12.00
2018-04-24T22:30:15.539Z,12.10
2018-04-24T22:32:43.893Z,12.10
2018-04-24T22:35:12.995Z,12.10
2018-04-24T22:37:42.179Z,12.10
2018-04-24T22:40:11.307Z,12.10
2018-04-24T22:42:39.692Z,12.10
2018-04-24T22:45:08.079Z,12.10
2018-04-24T22:47:36.533Z,12.10
2018-04-24T22:50:04.874Z,12.10
2018-04-24T22:52:33.260Z,12.10
2018-04-24T22:55:01.621Z,12.20
2018-04-24T22:57:29.969Z,12.20
2018-04-24T22:59:58.463Z,12.30
2018-04-24T23:02:26.853Z,12.30
2018-04-24T23:04:55.259Z,12.40
2018-04-24T23:07:24.798Z,12.40
2018-04-24T23:09:53.435Z,12.40
2018-04-24T23:12:33.758Z,12.40
2018-04-24T23:15:13.819Z,12.40
2018-04-24T23:17:54.007Z,12.50
2018-04-24T23:20:21.929Z,12.50
2018-04-24T23:22:50.461Z,12.50
2018-04-24T23:25:19.618Z,12.50
2018-04-24T23:27:47.975Z,12.50
2018-04-24T23:30:16.381Z,12.60
2018-04-24T23:32:44.881Z,12.60
2018-04-24T23:35:13.239Z,12.70
2018-04-24T23:37:41.612Z,12.70
2018-04-24T23:40:10.026Z,12.70
2018-04-24T23:42:38.432Z,12.80
2018-04-24T23:45:06.809Z,12.80
2018-04-24T23:47:35.231Z,12.90
2018-04-24T23:50:03.668Z,12.90
2018-04-24T23:52:31.996Z,13.00
2018-04-24T23:55:00.380Z,13.00
2018-04-24T23:57:28.775Z,13.00
2018-04-24T23:59:57.922Z,13.00
